Ledoux, New Mexico
Current Conditions -  °F | °C
As of 6:15 AM on Thursday 30 Oct 2014 (Local Time) from KAXX Reporting Station
Clear Clear  
Wind Chill: -9°   Ceiling: Unl
Heat Index: -9°   Visibility: 10mi
Dew Point: -12°   Wind: 0mph
Humidity: 80%   Direction: NA
Pressure: 30.43"   Gusts: NA
Location:  36.0379°N, 105.295°W
Report Text: KAXX 301215Z AUTO 00000KT 10SM CLR M09/M12 A3043 RMK AO2 T10931122
Loading
Personal Weather Stations






























Interactive Weather Map
Tropical Storm Tracking
New forecast layout! Learn more

10-Day Weather Forecast

Advertisements
Track Severe Weather on mobile